createdAt,value
2018-03-11T00:00:53.789Z,0
2018-03-11T00:02:02.703Z,0
2018-03-11T00:03:11.872Z,0
2018-03-11T00:04:21.040Z,0
2018-03-11T00:05:30.004Z,0
2018-03-11T00:06:38.966Z,0
2018-03-11T00:07:48.138Z,0
2018-03-11T00:08:57.080Z,0
2018-03-11T00:10:05.777Z,0
2018-03-11T00:11:14.761Z,0
2018-03-11T00:12:24.214Z,0
2018-03-11T00:13:33.430Z,0
2018-03-11T00:14:43.263Z,0
2018-03-11T00:15:52.122Z,0
2018-03-11T00:17:01.279Z,0
2018-03-11T00:18:10.238Z,0
2018-03-11T00:19:19.415Z,0
2018-03-11T00:20:28.310Z,0
2018-03-11T00:21:37.293Z,0
2018-03-11T00:22:46.449Z,0
2018-03-11T00:23:55.102Z,0
2018-03-11T00:25:03.773Z,0
2018-03-11T00:26:12.709Z,0
2018-03-11T00:27:21.626Z,0
2018-03-11T00:28:30.554Z,0
2018-03-11T00:29:39.998Z,0
2018-03-11T00:30:49.426Z,0
2018-03-11T00:31:58.593Z,0
2018-03-11T00:33:07.766Z,0
2018-03-11T00:34:16.418Z,0
2018-03-11T00:35:25.601Z,0
2018-03-11T00:36:34.769Z,0
2018-03-11T00:37:43.931Z,0
2018-03-11T00:38:53.122Z,0
2018-03-11T00:40:02.028Z,0
2018-03-11T00:41:10.960Z,0
2018-03-11T00:42:20.123Z,0
2018-03-11T00:43:28.777Z,0
2018-03-11T00:44:37.684Z,0
2018-03-11T00:45:46.848Z,0
2018-03-11T00:46:56.299Z,0
2018-03-11T00:48:05.229Z,0
2018-03-11T00:49:14.414Z,0
2018-03-11T00:50:23.064Z,0
2018-03-11T00:51:31.713Z,0
2018-03-11T00:52:40.615Z,0
2018-03-11T00:53:49.790Z,0
2018-03-11T00:54:58.980Z,0
2018-03-11T00:56:07.685Z,0
2018-03-11T00:57:16.326Z,0
2018-03-11T00:58:25.500Z,0
2018-03-11T00:59:34.696Z,0
2018-03-11T01:00:43.369Z,0
2018-03-11T01:01:52.563Z,0
2018-03-11T01:03:01.234Z,0
2018-03-11T01:04:10.706Z,0
2018-03-11T01:05:19.441Z,0
2018-03-11T01:06:29.388Z,0
2018-03-11T01:07:38.543Z,0
2018-03-11T01:08:47.488Z,0
2018-03-11T01:09:56.661Z,0
2018-03-11T01:11:05.309Z,0
2018-03-11T01:12:14.741Z,0
2018-03-11T01:13:23.659Z,0
2018-03-11T01:14:32.619Z,0
2018-03-11T01:15:41.792Z,0
2018-03-11T01:16:50.452Z,0
2018-03-11T01:17:59.394Z,0
2018-03-11T01:19:08.081Z,0
2018-03-11T01:20:17.603Z,0
2018-03-11T01:21:26.519Z,0
2018-03-11T01:22:35.703Z,0
2018-03-11T01:23:45.174Z,0
2018-03-11T01:24:54.612Z,0
2018-03-11T01:26:03.504Z,0
2018-03-11T01:27:12.676Z,0
2018-03-11T01:28:21.843Z,0
2018-03-11T01:29:31.008Z,0
2018-03-11T01:30:39.928Z,0
2018-03-11T01:31:49.386Z,0
2018-03-11T01:32:58.800Z,0
2018-03-11T01:34:07.974Z,0
2018-03-11T01:35:17.166Z,0
2018-03-11T01:36:26.607Z,0
2018-03-11T01:37:35.782Z,0
2018-03-11T01:38:45.220Z,0
2018-03-11T01:39:54.665Z,0
2018-03-11T01:41:03.567Z,0
2018-03-11T01:42:13.255Z,0
2018-03-11T01:43:22.445Z,0
2018-03-11T01:44:31.386Z,0
2018-03-11T01:45:40.570Z,0
2018-03-11T01:46:49.727Z,0
2018-03-11T01:47:58.402Z,0
2018-03-11T01:49:07.075Z,0
2018-03-11T01:50:16.240Z,0
2018-03-11T01:51:25.404Z,0
2018-03-11T01:52:34.037Z,0
2018-03-11T01:53:42.699Z,0
2018-03-11T01:54:51.872Z,0
2018-03-11T01:56:00.556Z,0
2018-03-11T01:57:09.273Z,0
2018-03-11T01:58:17.927Z,0
2018-03-11T01:59:26.565Z,0
2018-03-11T02:00:35.507Z,0
2018-03-11T02:01:44.419Z,0
2018-03-11T02:02:53.319Z,0
2018-03-11T02:04:02.744Z,0
2018-03-11T02:05:11.918Z,0
2018-03-11T02:06:20.557Z,0
2018-03-11T02:07:29.711Z,0
2018-03-11T02:08:38.889Z,0
2018-03-11T02:09:47.898Z,0
2018-03-11T02:10:56.810Z,0
2018-03-11T02:12:05.828Z,0
2018-03-11T02:13:14.465Z,0
2018-03-11T02:14:23.622Z,0
2018-03-11T02:15:32.274Z,0
2018-03-11T02:16:40.940Z,0
2018-03-11T02:17:49.612Z,0
2018-03-11T02:18:58.524Z,0
2018-03-11T02:20:07.942Z,0
2018-03-11T02:21:16.870Z,0
2018-03-11T02:22:25.824Z,0
2018-03-11T02:23:34.781Z,0
2018-03-11T02:24:43.952Z,0
2018-03-11T02:25:52.864Z,0
2018-03-11T02:27:01.488Z,0
2018-03-11T02:28:10.648Z,0
2018-03-11T02:29:19.812Z,0
2018-03-11T02:30:28.708Z,0
2018-03-11T02:31:38.136Z,0
2018-03-11T02:32:47.573Z,0
2018-03-11T02:33:57.025Z,0
2018-03-11T02:35:05.927Z,0
2018-03-11T02:36:15.129Z,0
2018-03-11T02:37:24.834Z,0
2018-03-11T02:38:33.495Z,0
2018-03-11T02:39:42.391Z,0
2018-03-11T02:40:51.568Z,0
2018-03-11T02:42:01.281Z,0
2018-03-11T02:43:10.469Z,0
2018-03-11T02:44:19.643Z,0
2018-03-11T02:45:29.068Z,0
2018-03-11T02:46:38.087Z,0
2018-03-11T02:47:47.282Z,0
2018-03-11T02:48:56.192Z,0
2018-03-11T02:50:05.345Z,0
2018-03-11T02:51:14.317Z,0
2018-03-11T02:52:24.040Z,0
2018-03-11T02:53:32.960Z,0
2018-03-11T02:54:41.877Z,0
2018-03-11T02:55:50.825Z,0
2018-03-11T02:56:59.732Z,0
2018-03-11T02:58:09.154Z,0
2018-03-11T02:59:18.084Z,0
2018-03-11T03:00:27.253Z,0
2018-03-11T03:01:36.428Z,0
2018-03-11T03:02:45.335Z,0
2018-03-11T03:03:54.267Z,0
2018-03-11T03:05:03.427Z,0
2018-03-11T03:06:12.346Z,0
2018-03-11T03:07:21.027Z,0
2018-03-11T03:08:29.946Z,0
2018-03-11T03:09:38.857Z,0
2018-03-11T03:10:47.758Z,0
2018-03-11T03:11:56.674Z,0
2018-03-11T03:13:05.585Z,0
2018-03-11T03:14:14.746Z,0
2018-03-11T03:15:24.155Z,0
2018-03-11T03:16:32.811Z,0
2018-03-11T03:17:41.723Z,0
2018-03-11T03:18:50.461Z,0
2018-03-11T03:19:59.143Z,0
2018-03-11T03:21:08.812Z,0
2018-03-11T03:22:17.524Z,0
2018-03-11T03:23:26.171Z,0
2018-03-11T03:24:35.355Z,0
2018-03-11T03:25:44.264Z,0
2018-03-11T03:26:53.932Z,0
2018-03-11T03:28:02.584Z,0
2018-03-11T03:29:12.036Z,0
2018-03-11T03:30:21.468Z,0
2018-03-11T03:31:30.929Z,0
2018-03-11T03:32:40.379Z,0
2018-03-11T03:33:49.830Z,0
2018-03-11T03:34:59.024Z,0
2018-03-11T03:36:07.687Z,0
2018-03-11T03:37:17.108Z,0
2018-03-11T03:38:25.747Z,0
2018-03-11T03:39:34.641Z,0
2018-03-11T03:40:43.310Z,0
2018-03-11T03:41:52.243Z,0
2018-03-11T03:43:01.150Z,0
2018-03-11T03:44:10.569Z,0
2018-03-11T03:45:19.212Z,0
2018-03-11T03:46:28.643Z,0
2018-03-11T03:47:38.067Z,0
2018-03-11T03:48:46.697Z,0
2018-03-11T03:49:56.123Z,0
2018-03-11T03:51:05.083Z,0
2018-03-11T03:52:14.267Z,0
2018-03-11T03:53:23.424Z,0
2018-03-11T03:54:32.595Z,0
2018-03-11T03:55:41.509Z,0
2018-03-11T03:56:50.729Z,0
2018-03-11T03:58:00.419Z,0
2018-03-11T03:59:09.618Z,0
2018-03-11T04:00:18.781Z,0
2018-03-11T04:01:27.434Z,0
2018-03-11T04:02:36.652Z,0
2018-03-11T04:03:45.834Z,0
2018-03-11T04:04:54.753Z,0
2018-03-11T04:06:03.995Z,0
2018-03-11T04:07:13.181Z,0
2018-03-11T04:08:22.607Z,0
2018-03-11T04:09:31.533Z,0
2018-03-11T04:10:40.965Z,0
2018-03-11T04:11:50.146Z,0
2018-03-11T04:12:59.314Z,0
2018-03-11T04:14:08.479Z,0
2018-03-11T04:15:17.422Z,0
2018-03-11T04:16:26.607Z,0
2018-03-11T04:17:35.775Z,0
2018-03-11T04:18:44.448Z,0
2018-03-11T04:19:53.889Z,0
2018-03-11T04:21:03.072Z,0
2018-03-11T04:22:12.937Z,0
2018-03-11T04:23:22.356Z,0
2018-03-11T04:24:30.998Z,0
2018-03-11T04:25:39.958Z,0
2018-03-11T04:26:49.131Z,0
2018-03-11T04:27:58.314Z,0
2018-03-11T04:29:07.488Z,0
2018-03-11T04:30:16.914Z,0
2018-03-11T04:31:38.820Z,0
2018-03-11T04:32:47.473Z,0
2018-03-11T04:33:56.136Z,0
2018-03-11T04:35:05.052Z,0
2018-03-11T04:36:14.217Z,0
2018-03-11T04:37:22.859Z,0
2018-03-11T04:38:32.545Z,0
2018-03-11T04:39:41.963Z,0
2018-03-11T04:40:50.603Z,0
2018-03-11T04:41:59.514Z,0
2018-03-11T04:43:08.431Z,0
2018-03-11T04:44:17.614Z,0
2018-03-11T04:45:27.036Z,0
2018-03-11T04:46:35.694Z,0
2018-03-11T04:47:44.851Z,0
2018-03-11T04:48:54.008Z,0
2018-03-11T04:50:02.932Z,0
2018-03-11T04:51:12.099Z,0
2018-03-11T04:52:21.014Z,0
2018-03-11T04:53:30.183Z,0
2018-03-11T04:54:39.098Z,0
2018-03-11T04:55:47.745Z,0
2018-03-11T04:56:56.665Z,0
2018-03-11T04:58:05.364Z,0
2018-03-11T04:59:14.297Z,0
2018-03-11T05:00:23.208Z,0
2018-03-11T05:01:31.853Z,0
2018-03-11T05:02:41.278Z,0
2018-03-11T05:03:50.722Z,0
2018-03-11T05:05:00.176Z,0
2018-03-11T05:06:09.589Z,0
2018-03-11T05:07:18.527Z,0
2018-03-11T05:08:28.240Z,0
2018-03-11T05:09:37.934Z,0
2018-03-11T05:10:47.430Z,0
2018-03-11T05:11:56.350Z,0
2018-03-11T05:13:05.533Z,0
2018-03-11T05:14:14.429Z,0
2018-03-11T05:15:23.638Z,0
2018-03-11T05:16:32.847Z,0
2018-03-11T05:17:41.509Z,0
2018-03-11T05:18:50.677Z,0
2018-03-11T05:19:59.334Z,0
2018-03-11T05:21:08.515Z,0
2018-03-11T05:22:17.452Z,0
2018-03-11T05:23:26.371Z,0
2018-03-11T05:24:35.302Z,0
2018-03-11T05:25:44.758Z,0
2018-03-11T05:26:54.178Z,0
2018-03-11T05:28:02.827Z,0
2018-03-11T05:29:11.749Z,0
2018-03-11T05:30:20.932Z,0
2018-03-11T05:31:30.386Z,0
2018-03-11T05:32:39.312Z,4
2018-03-11T05:33:47.989Z,0
2018-03-11T05:34:57.235Z,4
2018-03-11T05:36:06.433Z,0
2018-03-11T05:37:15.109Z,4
2018-03-11T05:38:24.280Z,4
2018-03-11T05:39:32.939Z,8
2018-03-11T05:40:41.848Z,8
2018-03-11T05:41:51.300Z,12
2018-03-11T05:43:00.214Z,16
2018-03-11T05:44:08.868Z,16
2018-03-11T05:45:17.573Z,20
2018-03-11T05:46:26.213Z,24
2018-03-11T05:47:35.161Z,28
2018-03-11T05:48:44.343Z,32
2018-03-11T05:49:53.759Z,36
2018-03-11T05:51:03.214Z,48
2018-03-11T05:52:12.108Z,56
2018-03-11T05:53:21.323Z,72
2018-03-11T05:54:30.523Z,80
2018-03-11T05:55:39.157Z,84
2018-03-11T05:56:47.794Z,84
2018-03-11T05:57:56.955Z,76
2018-03-11T05:59:05.604Z,80
2018-03-11T06:00:14.790Z,84
2018-03-11T06:01:24.199Z,84
2018-03-11T06:02:33.381Z,88
2018-03-11T06:03:42.290Z,92
2018-03-11T06:04:51.504Z,100
2018-03-11T06:06:00.690Z,104
2018-03-11T06:07:09.413Z,112
2018-03-11T06:08:18.601Z,116
2018-03-11T06:09:27.821Z,124
2018-03-11T06:10:36.781Z,128
2018-03-11T06:11:45.983Z,132
2018-03-11T06:12:55.247Z,144
2018-03-11T06:14:04.149Z,152
2018-03-11T06:15:13.352Z,172
2018-03-11T06:16:22.033Z,188
2018-03-11T06:17:30.973Z,204
2018-03-11T06:18:40.420Z,216
2018-03-11T06:19:49.603Z,228
2018-03-11T06:20:58.567Z,232
2018-03-11T06:22:07.793Z,240
2018-03-11T06:23:16.471Z,248
2018-03-11T06:24:25.361Z,256
2018-03-11T06:25:34.355Z,272
2018-03-11T06:26:43.554Z,284
2018-03-11T06:27:52.791Z,292
2018-03-11T06:29:01.992Z,300
2018-03-11T06:30:10.701Z,304
2018-03-11T06:31:20.007Z,312
2018-03-11T06:32:29.270Z,304
2018-03-11T06:33:38.999Z,300
2018-03-11T06:34:48.411Z,332
2018-03-11T06:35:57.143Z,364
2018-03-11T06:37:06.302Z,376
2018-03-11T06:38:15.491Z,356
2018-03-11T06:39:24.139Z,352
2018-03-11T06:40:33.566Z,408
2018-03-11T06:41:43.285Z,464
2018-03-11T06:42:52.270Z,476
2018-03-11T06:44:01.685Z,396
2018-03-11T06:45:10.591Z,304
2018-03-11T06:46:19.803Z,304
2018-03-11T06:47:28.966Z,244
2018-03-11T06:48:37.911Z,192
2018-03-11T06:49:47.072Z,180
2018-03-11T06:50:55.999Z,184
2018-03-11T06:52:04.898Z,184
2018-03-11T06:53:13.792Z,180
2018-03-11T06:54:22.978Z,156
2018-03-11T06:55:31.885Z,148
2018-03-11T06:56:40.576Z,168
2018-03-11T06:57:49.740Z,184
2018-03-11T06:58:58.674Z,248
2018-03-11T07:00:08.123Z,360
2018-03-11T07:01:16.806Z,500
2018-03-11T07:02:25.987Z,788
2018-03-11T07:03:34.888Z,1060
2018-03-11T07:04:43.553Z,980
2018-03-11T07:05:52.705Z,768
2018-03-11T07:07:01.618Z,524
2018-03-11T07:08:10.785Z,404
2018-03-11T07:09:20.309Z,348
2018-03-11T07:10:29.221Z,328
2018-03-11T07:11:38.144Z,368
2018-03-11T07:12:47.325Z,368
2018-03-11T07:13:56.492Z,296
2018-03-11T07:15:05.931Z,244
2018-03-11T07:16:14.925Z,200
2018-03-11T07:17:24.408Z,192
2018-03-11T07:18:33.313Z,216
2018-03-11T07:19:42.476Z,256
2018-03-11T07:20:51.912Z,232
2018-03-11T07:22:01.353Z,196
2018-03-11T07:23:10.528Z,180
2018-03-11T07:24:19.444Z,192
2018-03-11T07:25:28.919Z,196
2018-03-11T07:26:37.580Z,208
2018-03-11T07:27:47.003Z,216
2018-03-11T07:28:56.239Z,204
2018-03-11T07:30:05.454Z,200
2018-03-11T07:31:14.112Z,180
2018-03-11T07:32:23.024Z,160
2018-03-11T07:33:32.181Z,168
2018-03-11T07:34:41.607Z,172
2018-03-11T07:35:51.608Z,184
2018-03-11T07:37:00.758Z,208
2018-03-11T07:38:09.918Z,232
2018-03-11T07:39:19.345Z,228
2018-03-11T07:40:28.542Z,216
2018-03-11T07:41:37.459Z,212
2018-03-11T07:42:46.900Z,220
2018-03-11T07:43:56.056Z,220
2018-03-11T07:45:04.992Z,240
2018-03-11T07:46:14.860Z,252
2018-03-11T07:47:23.784Z,264
2018-03-11T07:48:33.041Z,276
2018-03-11T07:49:41.681Z,240
2018-03-11T07:50:51.094Z,204
2018-03-11T07:52:00.362Z,196
2018-03-11T07:53:09.859Z,192
2018-03-11T07:54:20.062Z,196
2018-03-11T07:55:29.002Z,232
2018-03-11T07:56:38.258Z,252
2018-03-11T07:57:47.848Z,236
2018-03-11T07:58:57.716Z,192
2018-03-11T08:00:06.899Z,176
2018-03-11T08:01:16.063Z,176
2018-03-11T08:02:25.500Z,192
2018-03-11T08:03:34.142Z,196
2018-03-11T08:04:44.050Z,208
2018-03-11T08:05:53.817Z,188
2018-03-11T08:07:02.739Z,192
2018-03-11T08:08:11.669Z,228
2018-03-11T08:09:21.113Z,232
2018-03-11T08:10:30.573Z,248
2018-03-11T08:11:39.225Z,264
2018-03-11T08:12:48.006Z,324
2018-03-11T08:13:57.711Z,404
2018-03-11T08:15:06.865Z,400
2018-03-11T08:16:16.345Z,388
2018-03-11T08:17:25.779Z,444
2018-03-11T08:18:34.978Z,440
2018-03-11T08:19:43.886Z,420
2018-03-11T08:20:53.056Z,564
2018-03-11T08:22:01.976Z,592
2018-03-11T08:23:11.447Z,660
2018-03-11T08:24:20.606Z,724
2018-03-11T08:25:29.771Z,856
2018-03-11T08:26:38.948Z,932
2018-03-11T08:27:48.436Z,856
2018-03-11T08:28:57.894Z,776
2018-03-11T08:30:06.828Z,732
2018-03-11T08:31:15.985Z,716
2018-03-11T08:32:24.977Z,576
2018-03-11T08:33:33.878Z,400
2018-03-11T08:34:43.100Z,444
2018-03-11T08:35:52.548Z,428
2018-03-11T08:37:01.463Z,420
2018-03-11T08:38:10.656Z,484
2018-03-11T08:39:19.318Z,528
2018-03-11T08:40:28.495Z,460
2018-03-11T08:41:37.400Z,428
2018-03-11T08:42:46.623Z,440
2018-03-11T08:43:55.859Z,380
2018-03-11T08:45:05.286Z,380
2018-03-11T08:46:13.932Z,464
2018-03-11T08:47:23.387Z,404
2018-03-11T08:48:32.549Z,420
2018-03-11T08:49:41.985Z,496
2018-03-11T08:50:50.891Z,448
2018-03-11T08:51:59.809Z,428
2018-03-11T08:53:08.958Z,464
2018-03-11T08:54:17.634Z,564
2018-03-11T08:55:26.800Z,816
2018-03-11T08:56:36.224Z,1268
2018-03-11T08:57:44.902Z,1516
2018-03-11T08:58:54.078Z,1568
2018-03-11T09:00:02.983Z,1544
2018-03-11T09:01:12.146Z,1360
2018-03-11T09:02:20.799Z,1312
2018-03-11T09:03:29.704Z,1440
2018-03-11T09:04:38.843Z,1480
2018-03-11T09:05:48.272Z,1684
2018-03-11T09:06:58.234Z,1820
2018-03-11T09:08:07.690Z,1352
2018-03-11T09:09:16.849Z,1152
2018-03-11T09:10:25.926Z,1008
2018-03-11T09:11:35.105Z,1076
2018-03-11T09:12:44.265Z,1296
2018-03-11T09:13:53.576Z,1312
2018-03-11T09:15:02.496Z,1448
2018-03-11T09:16:11.144Z,1448
2018-03-11T09:17:20.306Z,1228
2018-03-11T09:18:29.725Z,1200
2018-03-11T09:19:39.154Z,1392
2018-03-11T09:20:48.088Z,1644
2018-03-11T09:21:57.263Z,1788
2018-03-11T09:23:06.965Z,1824
2018-03-11T09:24:16.173Z,1776
2018-03-11T09:25:25.100Z,1808
2018-03-11T09:26:33.741Z,1800
2018-03-11T09:27:42.638Z,1552
2018-03-11T09:28:52.047Z,1604
2018-03-11T09:30:00.958Z,1592
2018-03-11T09:31:10.391Z,1680
2018-03-11T09:32:19.567Z,1628
2018-03-11T09:33:28.487Z,1512
2018-03-11T09:34:37.142Z,1436
2018-03-11T09:35:46.336Z,1232
2018-03-11T09:36:55.861Z,1188
2018-03-11T09:38:04.787Z,1264
2018-03-11T09:39:13.729Z,1308
2018-03-11T09:40:23.101Z,1348
2018-03-11T09:41:32.258Z,1396
2018-03-11T09:42:40.902Z,1456
2018-03-11T09:43:50.361Z,1500
2018-03-11T09:44:59.532Z,1556
2018-03-11T09:46:08.957Z,1472
2018-03-11T09:47:18.135Z,1388
2018-03-11T09:48:27.608Z,1256
2018-03-11T09:49:37.060Z,1292
2018-03-11T09:50:46.257Z,1188
2018-03-11T09:51:55.964Z,1076
2018-03-11T09:53:04.876Z,988
2018-03-11T09:54:13.832Z,1608
2018-03-11T09:55:23.258Z,2280
2018-03-11T09:56:32.475Z,2608
2018-03-11T09:57:41.168Z,2680
2018-03-11T09:58:50.328Z,2660
2018-03-11T09:59:59.510Z,2600
2018-03-11T10:01:09.227Z,2568
2018-03-11T10:02:18.426Z,2528
2018-03-11T10:03:27.070Z,2448
2018-03-11T10:04:36.035Z,2380
2018-03-11T10:05:44.964Z,2312
2018-03-11T10:06:54.152Z,2248
2018-03-11T10:08:03.840Z,2156
2018-03-11T10:09:13.026Z,2016
2018-03-11T10:10:21.714Z,1844
2018-03-11T10:11:30.347Z,1936
2018-03-11T10:12:39.009Z,1876
2018-03-11T10:13:47.666Z,1844
2018-03-11T10:14:57.099Z,1872
2018-03-11T10:16:05.777Z,1924
2018-03-11T10:17:15.222Z,1952
2018-03-11T10:18:24.406Z,1940
2018-03-11T10:19:33.071Z,1964
2018-03-11T10:20:41.979Z,1964
2018-03-11T10:21:51.472Z,1964
2018-03-11T10:23:00.379Z,1972
2018-03-11T10:24:09.296Z,1988
2018-03-11T10:25:18.197Z,1984
2018-03-11T10:26:27.412Z,1860
2018-03-11T10:27:36.321Z,1640
2018-03-11T10:28:46.002Z,1372
2018-03-11T10:29:55.182Z,1036
2018-03-11T10:31:04.084Z,912
2018-03-11T10:32:12.983Z,768
2018-03-11T10:33:22.678Z,720
2018-03-11T10:34:32.106Z,900
2018-03-11T10:35:41.015Z,1300
2018-03-11T10:36:49.890Z,1788
2018-03-11T10:37:58.854Z,2128
2018-03-11T10:39:07.992Z,2812
2018-03-11T10:40:17.728Z,2568
2018-03-11T10:41:26.404Z,2424
2018-03-11T10:42:35.661Z,2372
2018-03-11T10:43:45.500Z,2328
2018-03-11T10:44:55.491Z,2308
2018-03-11T10:46:04.724Z,2264
2018-03-11T10:47:14.773Z,2124
2018-03-11T10:48:24.367Z,1848
2018-03-11T10:49:33.311Z,1604
2018-03-11T10:50:42.219Z,1344
2018-03-11T10:51:51.401Z,1468
2018-03-11T10:53:00.071Z,1524
2018-03-11T10:54:09.263Z,1452
2018-03-11T10:55:18.182Z,1348
2018-03-11T10:56:27.358Z,1156
2018-03-11T10:57:36.584Z,1104
2018-03-11T10:58:45.803Z,1168
2018-03-11T10:59:54.536Z,1180
2018-03-11T11:01:03.717Z,1036
2018-03-11T11:02:12.684Z,1392
2018-03-11T11:03:21.586Z,1812
2018-03-11T11:04:30.499Z,2088
2018-03-11T11:05:39.686Z,2264
2018-03-11T11:06:49.373Z,2268
2018-03-11T11:07:58.841Z,2256
2018-03-11T11:09:07.508Z,2096
2018-03-11T11:10:16.206Z,1900
2018-03-11T11:11:25.996Z,1932
2018-03-11T11:12:34.743Z,1948
2018-03-11T11:13:44.072Z,1852
2018-03-11T11:14:53.856Z,1724
2018-03-11T11:16:03.441Z,1304
2018-03-11T11:17:12.618Z,1228
2018-03-11T11:18:21.819Z,1204
2018-03-11T11:19:30.781Z,1264
2018-03-11T11:20:40.015Z,1464
2018-03-11T11:21:48.927Z,1620
2018-03-11T11:22:57.870Z,1696
2018-03-11T11:24:07.126Z,1832
2018-03-11T11:25:16.596Z,1888
2018-03-11T11:26:26.726Z,1880
2018-03-11T11:27:35.630Z,1784
2018-03-11T11:28:44.820Z,1724
2018-03-11T11:29:54.306Z,1612
2018-03-11T11:31:04.572Z,1544
2018-03-11T11:32:14.706Z,1480
2018-03-11T11:33:24.152Z,1428
2018-03-11T11:34:33.253Z,1384
2018-03-11T11:35:42.765Z,1404
2018-03-11T11:36:51.703Z,1440
2018-03-11T11:38:00.369Z,1456
2018-03-11T11:39:09.044Z,1460
2018-03-11T11:40:19.057Z,1436
2018-03-11T11:41:28.871Z,1416
2018-03-11T11:42:38.494Z,1408
2018-03-11T11:43:47.444Z,1416
2018-03-11T11:44:56.375Z,1444
2018-03-11T11:46:05.597Z,1476
2018-03-11T11:47:14.485Z,1476
2018-03-11T11:48:23.408Z,1440
2018-03-11T11:49:32.335Z,1392
2018-03-11T11:50:41.232Z,1356
2018-03-11T11:51:50.164Z,1320
2018-03-11T11:52:59.590Z,1276
2018-03-11T11:54:08.774Z,1252
2018-03-11T11:55:18.354Z,1248
2018-03-11T11:56:27.784Z,1248
2018-03-11T11:57:36.724Z,1260
2018-03-11T11:58:45.434Z,1276
2018-03-11T11:59:54.097Z,1292
2018-03-11T12:01:03.542Z,1320
2018-03-11T12:02:12.275Z,1340
2018-03-11T12:03:21.376Z,1356
2018-03-11T12:04:31.351Z,1360
2018-03-11T12:05:40.356Z,1368
2018-03-11T12:06:49.270Z,1380
2018-03-11T12:07:58.201Z,1396
2018-03-11T12:09:06.913Z,1400
2018-03-11T12:10:15.831Z,1424
2018-03-11T12:11:25.038Z,1464
2018-03-11T12:12:33.986Z,1512
2018-03-11T12:13:43.592Z,1556
2018-03-11T12:14:53.558Z,1592
2018-03-11T12:16:03.742Z,1612
2018-03-11T12:17:12.925Z,1624
2018-03-11T12:18:22.367Z,1636
2018-03-11T12:19:31.544Z,1656
2018-03-11T12:20:40.984Z,1668
2018-03-11T12:21:51.220Z,1680
2018-03-11T12:23:00.985Z,1660
2018-03-11T12:24:10.195Z,1644
2018-03-11T12:25:18.873Z,1640
2018-03-11T12:26:27.533Z,1616
2018-03-11T12:27:36.455Z,1620
2018-03-11T12:28:45.118Z,1608
2018-03-11T12:29:54.115Z,1596
2018-03-11T12:31:03.083Z,1588
2018-03-11T12:32:11.736Z,1592
2018-03-11T12:33:20.913Z,1624
2018-03-11T12:34:30.566Z,1692
2018-03-11T12:35:39.746Z,1740
2018-03-11T12:36:48.918Z,1764
2018-03-11T12:37:58.089Z,1784
2018-03-11T12:39:07.005Z,1808
2018-03-11T12:40:15.932Z,1844
2018-03-11T12:41:24.830Z,1856
2018-03-11T12:42:33.728Z,1860
2018-03-11T12:43:43.178Z,1852
2018-03-11T12:44:52.350Z,1840
2018-03-11T12:46:01.087Z,1848
2018-03-11T12:47:09.735Z,1872
2018-03-11T12:48:18.675Z,1896
2018-03-11T12:49:27.309Z,1888
2018-03-11T12:50:36.470Z,1860
2018-03-11T12:51:45.412Z,1832
2018-03-11T12:52:54.113Z,1808
2018-03-11T12:54:03.029Z,1784
2018-03-11T12:55:11.945Z,1756
2018-03-11T12:56:20.840Z,1728
2018-03-11T12:57:30.003Z,1684
2018-03-11T12:58:38.727Z,1628
2018-03-11T12:59:48.156Z,1612
2018-03-11T13:00:57.094Z,1640
2018-03-11T13:02:06.291Z,1676
2018-03-11T13:03:15.724Z,1708
2018-03-11T13:04:25.174Z,1744
2018-03-11T13:05:34.342Z,1772
2018-03-11T13:06:43.790Z,1812
2018-03-11T13:07:52.705Z,1824
2018-03-11T13:09:02.199Z,1812
2018-03-11T13:10:11.916Z,1808
2018-03-11T13:11:20.828Z,1804
2018-03-11T13:12:30.276Z,1784
2018-03-11T13:13:39.719Z,1760
2018-03-11T13:14:48.639Z,1732
2018-03-11T13:15:58.530Z,1716
2018-03-11T13:17:08.149Z,1708
2018-03-11T13:18:17.609Z,1676
2018-03-11T13:19:26.527Z,1620
2018-03-11T13:20:35.622Z,1576
2018-03-11T13:21:44.631Z,1540
2018-03-11T13:22:54.235Z,1520
2018-03-11T13:24:03.629Z,1544
2018-03-11T13:25:12.668Z,1584
2018-03-11T13:26:22.039Z,1628
2018-03-11T13:27:31.214Z,1648
2018-03-11T13:28:40.136Z,1644
2018-03-11T13:29:48.949Z,1636
2018-03-11T13:30:57.925Z,1636
2018-03-11T13:32:06.848Z,1652
2018-03-11T13:33:16.093Z,1676
2018-03-11T13:34:25.011Z,1704
2018-03-11T13:35:33.942Z,1740
2018-03-11T13:36:43.111Z,1788
2018-03-11T13:37:52.287Z,1836
2018-03-11T13:39:00.949Z,1888
2018-03-11T13:40:09.946Z,1924
2018-03-11T13:41:19.385Z,1944
2018-03-11T13:42:29.119Z,1968
2018-03-11T13:43:38.295Z,2004
2018-03-11T13:44:48.415Z,2060
2018-03-11T13:45:57.411Z,2136
2018-03-11T13:47:06.598Z,2208
2018-03-11T13:48:15.828Z,2256
2018-03-11T13:49:25.278Z,2272
2018-03-11T13:50:34.221Z,2260
2018-03-11T13:51:42.874Z,2212
2018-03-11T13:52:52.436Z,2144
2018-03-11T13:54:01.341Z,2104
2018-03-11T13:55:10.230Z,2072
2018-03-11T13:56:19.146Z,2056
2018-03-11T13:57:28.311Z,2060
2018-03-11T13:58:37.507Z,2076
2018-03-11T13:59:46.700Z,2092
2018-03-11T14:00:55.881Z,2072
2018-03-11T14:02:04.836Z,2012
2018-03-11T14:03:13.478Z,1948
2018-03-11T14:04:22.937Z,1896
2018-03-11T14:05:32.127Z,1856
2018-03-11T14:06:41.391Z,1844
2018-03-11T14:07:50.591Z,1848
2018-03-11T14:08:59.750Z,1828
2018-03-11T14:10:08.926Z,1796
2018-03-11T14:11:17.864Z,1776
2018-03-11T14:12:27.169Z,1784
2018-03-11T14:13:36.228Z,1792
2018-03-11T14:14:46.173Z,1804
2018-03-11T14:15:55.618Z,1828
2018-03-11T14:17:05.028Z,1840
2018-03-11T14:18:14.273Z,1780
2018-03-11T14:19:23.448Z,1764
2018-03-11T14:20:32.356Z,1824
2018-03-11T14:21:41.535Z,1908
2018-03-11T14:22:50.187Z,1896
2018-03-11T14:23:58.874Z,1876
2018-03-11T14:25:07.764Z,1932
2018-03-11T14:26:16.406Z,1884
2018-03-11T14:27:25.312Z,1844
2018-03-11T14:28:34.487Z,1804
2018-03-11T14:29:43.944Z,1772
2018-03-11T14:30:53.135Z,1812
2018-03-11T14:32:02.338Z,1816
2018-03-11T14:33:11.558Z,1824
2018-03-11T14:34:20.474Z,1828
2018-03-11T14:35:29.370Z,1828
2018-03-11T14:36:38.545Z,1792
2018-03-11T14:37:47.707Z,1648
2018-03-11T14:38:57.161Z,1516
2018-03-11T14:40:05.849Z,1584
2018-03-11T14:41:15.273Z,1656
2018-03-11T14:42:24.172Z,1688
2018-03-11T14:43:33.619Z,1692
2018-03-11T14:44:42.803Z,1688
2018-03-11T14:45:51.976Z,1596
2018-03-11T14:47:01.139Z,1608
2018-03-11T14:48:10.044Z,1648
2018-03-11T14:49:18.974Z,1664
2018-03-11T14:50:28.401Z,1648
2018-03-11T14:51:37.600Z,1632
2018-03-11T14:52:46.777Z,1624
2018-03-11T14:53:56.891Z,1608
2018-03-11T14:55:05.845Z,1584
2018-03-11T14:56:15.006Z,1568
2018-03-11T14:57:24.167Z,1544
2018-03-11T14:58:32.867Z,1548
2018-03-11T14:59:42.146Z,1532
2018-03-11T15:00:51.077Z,1508
2018-03-11T15:02:00.492Z,1484
2018-03-11T15:03:09.693Z,1472
2018-03-11T15:04:18.411Z,1456
2018-03-11T15:05:27.372Z,1448
2018-03-11T15:06:36.806Z,1428
2018-03-11T15:07:46.262Z,1412
2018-03-11T15:08:55.969Z,1400
2018-03-11T15:10:04.935Z,1380
2018-03-11T15:11:14.224Z,1364
2018-03-11T15:12:23.396Z,1352
2018-03-11T15:13:32.618Z,1336
2018-03-11T15:14:41.528Z,1324
2018-03-11T15:15:50.431Z,1308
2018-03-11T15:16:59.089Z,1272
2018-03-11T15:18:08.281Z,1244
2018-03-11T15:19:17.752Z,1244
2018-03-11T15:20:26.930Z,1248
2018-03-11T15:21:36.105Z,1244
2018-03-11T15:22:44.778Z,1200
2018-03-11T15:23:53.434Z,1112
2018-03-11T15:25:02.358Z,972
2018-03-11T15:26:11.518Z,868
2018-03-11T15:27:20.431Z,824
2018-03-11T15:28:29.876Z,788
2018-03-11T15:29:38.803Z,860
2018-03-11T15:30:48.243Z,980
2018-03-11T15:31:57.677Z,1032
2018-03-11T15:33:06.867Z,1092
2018-03-11T15:34:16.295Z,1136
2018-03-11T15:35:25.245Z,1156
2018-03-11T15:36:34.688Z,1148
2018-03-11T15:37:43.972Z,1136
2018-03-11T15:38:52.589Z,1084
2018-03-11T15:40:01.520Z,1068
2018-03-11T15:41:10.455Z,1036
2018-03-11T15:42:19.379Z,1028
2018-03-11T15:43:28.550Z,1012
2018-03-11T15:44:37.739Z,992
2018-03-11T15:45:47.032Z,968
2018-03-11T15:46:55.940Z,952
2018-03-11T15:48:04.602Z,932
2018-03-11T15:49:13.802Z,912
2018-03-11T15:50:22.974Z,896
2018-03-11T15:51:32.496Z,888
2018-03-11T15:52:41.688Z,888
2018-03-11T15:53:50.601Z,880
2018-03-11T15:54:59.778Z,848
2018-03-11T15:56:08.692Z,776
2018-03-11T15:57:17.870Z,708
2018-03-11T15:58:27.292Z,672
2018-03-11T15:59:36.205Z,660
2018-03-11T16:00:45.385Z,656
2018-03-11T16:01:54.090Z,652
2018-03-11T16:03:03.256Z,676